CheckWX is a tool to help pilots better visualize weather data.  It is not intended as a substitute for an official pre-flight weather briefing.

15:04:38 UTC

12N METAR
Aeroflex-Andover Airport
Andover, New Jersey, USA
Current

11 mins ago

K12N 231454Z AUTO 21007KT 16/09 A3014 RMK AO1 SLP203 60002 T01610089 58018
Observed
May-23 @ 14:54 UTC
Wind
  • 210° at 7 KTS
Visibility
Temperature
16°C / 61°F
Dewpoint
C / 48°F
Humidity
63%
Altimeter
30.14" Hg
Pressure
1020.62 hPa
Previous

1 hour ago

K12N 231354Z AUTO VRB06KT 16/10 A3016 RMK AO1 SLP212 T01560100
Observed
May-23 @ 13:54 UTC
Wind
  • Variable at 6 KTS
Visibility
Temperature
16°C / 61°F
Dewpoint
10°C / 50°F
Humidity
68%
Altimeter
30.16" Hg
Pressure
1021.32 hPa
Previous

2 hours ago

K12N 231254Z AUTO 19004KT 14/11 A3019 RMK AO1 SLP220 P0002 T01390111
Observed
May-23 @ 12:54 UTC
Wind
  • 190° at 4 KTS
Visibility
Temperature
14°C / 57°F
Dewpoint
11°C / 52°F
Humidity
82%
Altimeter
30.19" Hg
Pressure
1022.32 hPa
Current Rain
0.02"